Time;durP1;ratioP1;P1;durP2;ratioP2;P2;SDS_P1;SDS_P2;PMS_P1;PMS_P2;Temp;Humidity;BMP_temperature;BMP_pressure;BME280_temperature;BME280_humidity;BME280_pressure;Samples;Min_cycle;Max_cycle;Signal;HPM_P1;HPM_P2
2022/07/28 00:01:45;;;;;;;;;;;21.60;65.70;;;;;;5012755;28;1434;-70
2022/07/28 00:04:10;;;;;;;;;;;21.60;65.70;;;;;;5012023;28;1351;-70
2022/07/28 00:06:36;;;;;;;;;;;21.60;65.80;;;;;;5011465;28;1954;-70
2022/07/28 00:09:01;;;;;;;;;;;21.60;65.80;;;;;;5011324;28;1669;-70
2022/07/28 00:11:27;;;;;;;;;;;21.60;65.80;;;;;;5010847;28;1377;-70
2022/07/28 00:13:52;;;;;;;;;;;21.60;65.80;;;;;;5011145;28;1388;-70
2022/07/28 00:16:18;;;;;;;;;;;21.60;65.80;;;;;;5012633;28;1255;-70
2022/07/28 00:18:44;;;;;;;;;;;21.60;65.80;;;;;;5011107;28;1110;-70
2022/07/28 00:21:09;;;;;;;;;;;21.60;65.90;;;;;;5008884;28;1381;-70
2022/07/28 00:23:35;;;;;;;;;;;21.60;65.90;;;;;;5011351;28;1286;-70
2022/07/28 00:26:00;;;;;;;;;;;21.60;65.90;;;;;;5011208;28;1171;-71
2022/07/28 00:28:25;;;;;;;;;;;21.60;65.90;;;;;;5001834;28;1910;-71
2022/07/28 00:30:54;;;;;;;;;;;21.60;66.00;;;;;;5012559;28;1675;-70
2022/07/28 00:33:19;;;;;;;;;;;21.60;66.00;;;;;;5011274;28;1367;-70
2022/07/28 00:35:45;;;;;;;;;;;21.60;66.00;;;;;;5012189;28;1263;-70
2022/07/28 00:38:10;;;;;;;;;;;21.60;66.00;;;;;;5012215;28;1279;-70
2022/07/28 00:43:20;;;;;;;;;;;21.60;66.10;;;;;;5011764;28;1248;-71
2022/07/28 00:45:48;;;;;;;;;;;21.60;66.10;;;;;;5013130;28;1346;-70
2022/07/28 00:48:13;;;;;;;;;;;21.60;66.10;;;;;;5015795;28;1952;-70
2022/07/28 00:50:39;;;;;;;;;;;21.60;66.10;;;;;;5016298;28;1284;-70
2022/07/28 00:53:05;;;;;;;;;;;21.60;66.10;;;;;;4998719;28;1326;-71
2022/07/28 00:55:30;;;;;;;;;;;21.60;66.20;;;;;;5013871;28;1355;-71
2022/07/28 00:57:56;;;;;;;;;;;21.60;66.20;;;;;;4996888;28;2184;-71
2022/07/28 01:00:21;;;;;;;;;;;21.60;66.20;;;;;;5014403;28;1340;-71
2022/07/28 01:02:47;;;;;;;;;;;21.60;66.20;;;;;;5016078;28;1334;-69
2022/07/28 01:05:13;;;;;;;;;;;21.60;66.20;;;;;;5014275;28;1426;-71
2022/07/28 01:07:42;;;;;;;;;;;21.60;66.30;;;;;;5014598;28;1898;-70
2022/07/28 01:10:19;;;;;;;;;;;21.70;66.40;;;;;;5014250;28;1409;-70
2022/07/28 01:13:04;;;;;;;;;;;21.60;66.30;;;;;;5013955;28;1377;-70
2022/07/28 01:15:32;;;;;;;;;;;21.60;66.30;;;;;;5014154;28;1588;-70
2022/07/28 01:18:05;;;;;;;;;;;21.60;66.30;;;;;;5014768;28;1292;-70
2022/07/28 01:20:33;;;;;;;;;;;21.60;66.30;;;;;;4990951;28;1366;-69
2022/07/28 01:23:04;;;;;;;;;;;21.60;66.40;;;;;;4997899;28;1174;-69
2022/07/28 01:25:38;;;;;;;;;;;21.60;66.40;;;;;;5014510;28;1130;-70
2022/07/28 01:28:22;;;;;;;;;;;21.60;66.40;;;;;;5009180;28;1975;-70
2022/07/28 01:30:56;;;;;;;;;;;21.60;66.40;;;;;;5015644;28;1397;-70
2022/07/28 01:33:36;;;;;;;;;;;21.60;66.40;;;;;;4997715;28;1276;-70
2022/07/28 01:36:02;;;;;;;;;;;21.60;66.40;;;;;;4997526;28;1299;-70
2022/07/28 01:38:28;;;;;;;;;;;21.60;66.50;;;;;;4997728;28;1460;-70
2022/07/28 01:40:53;;;;;;;;;;;21.60;66.50;;;;;;5030132;28;1334;-70
2022/07/28 01:43:20;;;;;;;;;;;21.60;66.50;;;;;;5014842;28;1270;-70
2022/07/28 01:45:46;;;;;;;;;;;21.60;66.50;;;;;;5013785;28;1223;-70
2022/07/28 01:48:11;;;;;;;;;;;21.60;66.50;;;;;;5015110;28;1887;-70
2022/07/28 01:50:37;;;;;;;;;;;21.60;66.60;;;;;;5015378;28;1282;-70
2022/07/28 01:53:02;;;;;;;;;;;21.60;66.50;;;;;;5014980;28;1282;-69
2022/07/28 01:55:27;;;;;;;;;;;21.60;66.50;;;;;;5012771;28;1340;-70
2022/07/28 01:57:53;;;;;;;;;;;21.60;66.50;;;;;;5015123;28;1347;-69
2022/07/28 02:00:19;;;;;;;;;;;21.60;66.60;;;;;;5013740;28;1325;-71
2022/07/28 02:02:45;;;;;;;;;;;21.60;66.60;;;;;;5014604;28;1306;-71
2022/07/28 02:05:11;;;;;;;;;;;21.60;66.60;;;;;;5014571;28;1490;-71
2022/07/28 02:07:36;;;;;;;;;;;21.60;66.60;;;;;;5015093;28;1890;-71
2022/07/28 02:12:29;;;;;;;;;;;21.60;66.60;;;;;;5042983;22;3558;-66
2022/07/28 02:14:55;;;;;;;;;;;21.70;66.70;;;;;;5013622;28;1579;-66
2022/07/28 02:17:24;;;;;;;;;;;21.60;66.70;;;;;;5026507;28;1351;-66
2022/07/28 02:19:49;;;;;;;;;;;21.60;66.70;;;;;;4997620;28;1612;-65
2022/07/28 02:22:15;;;;;;;;;;;21.60;66.70;;;;;;4997504;28;1360;-65
2022/07/28 02:24:40;;;;;;;;;;;21.60;66.70;;;;;;5014650;28;1424;-66
2022/07/28 02:27:10;;;;;;;;;;;21.60;66.70;;;;;;5024814;28;1964;-66
2022/07/28 02:29:40;;;;;;;;;;;21.60;66.70;;;;;;4997677;28;1366;-65
2022/07/28 02:32:07;;;;;;;;;;;21.60;66.70;;;;;;5014827;28;1238;-65
2022/07/28 02:34:32;;;;;;;;;;;21.60;66.80;;;;;;4997113;28;1305;-65
2022/07/28 02:36:59;;;;;;;;;;;21.60;66.80;;;;;;5014925;28;1389;-65
2022/07/28 02:39:28;;;;;;;;;;;21.60;66.80;;;;;;5003677;28;1267;-66
2022/07/28 02:41:56;;;;;;;;;;;21.60;66.80;;;;;;5016812;28;1472;-65
2022/07/28 02:44:24;;;;;;;;;;;21.60;66.80;;;;;;5016367;28;1120;-64
2022/07/28 02:46:50;;;;;;;;;;;21.60;66.80;;;;;;5034171;28;1902;-66
2022/07/28 02:49:18;;;;;;;;;;;21.60;66.80;;;;;;5016782;28;1305;-66
2022/07/28 02:51:43;;;;;;;;;;;21.60;67.60;;;;;;5016459;28;1367;-66
2022/07/28 02:54:09;;;;;;;;;;;21.60;66.90;;;;;;5016349;28;1084;-66
2022/07/28 02:56:34;;;;;;;;;;;21.60;66.90;;;;;;5016511;28;1201;-66
2022/07/28 02:59:00;;;;;;;;;;;21.70;67.00;;;;;;5016092;28;1351;-66
2022/07/28 03:01:25;;;;;;;;;;;21.70;67.00;;;;;;5016172;28;1351;-66
2022/07/28 03:03:51;;;;;;;;;;;21.60;66.90;;;;;;5015597;28;1116;-67
2022/07/28 03:06:16;;;;;;;;;;;21.60;66.90;;;;;;5015562;28;1282;-67
2022/07/28 03:08:42;;;;;;;;;;;21.60;66.90;;;;;;5015671;28;1890;-67
2022/07/28 03:11:08;;;;;;;;;;;21.60;66.90;;;;;;5013936;28;1324;-66
2022/07/28 03:13:33;;;;;;;;;;;21.60;66.90;;;;;;4996659;28;1108;-66
2022/07/28 03:15:59;;;;;;;;;;;21.60;67.00;;;;;;5013554;28;1640;-66
2022/07/28 03:18:26;;;;;;;;;;;21.60;66.90;;;;;;5014086;28;1345;-66
2022/07/28 03:20:52;;;;;;;;;;;21.70;67.00;;;;;;5000016;28;1277;-66
2022/07/28 03:23:17;;;;;;;;;;;21.60;67.00;;;;;;5014139;28;1154;-66
2022/07/28 03:25:44;;;;;;;;;;;21.60;67.00;;;;;;4995961;28;1281;-66
2022/07/28 03:28:13;;;;;;;;;;;21.60;67.00;;;;;;5026273;28;1969;-66
2022/07/28 03:30:40;;;;;;;;;;;21.70;67.10;;;;;;4996590;28;1327;-66
2022/07/28 03:33:05;;;;;;;;;;;21.60;67.00;;;;;;4996169;28;1092;-66
2022/07/28 03:35:31;;;;;;;;;;;21.60;67.00;;;;;;4995776;28;1348;-66
2022/07/28 03:37:58;;;;;;;;;;;21.60;67.00;;;;;;5014016;28;1139;-66
2022/07/28 03:40:25;;;;;;;;;;;21.60;67.00;;;;;;4995814;28;1307;-66
2022/07/28 03:42:51;;;;;;;;;;;21.60;67.10;;;;;;5013416;28;1128;-67
2022/07/28 03:45:16;;;;;;;;;;;21.60;67.10;;;;;;4995720;28;1339;-66
2022/07/28 03:47:53;;;;;;;;;;;21.60;67.10;;;;;;4995884;28;1958;-66
2022/07/28 03:50:25;;;;;;;;;;;21.70;67.10;;;;;;4995991;28;1377;-66
2022/07/28 03:52:51;;;;;;;;;;;21.60;67.10;;;;;;4995848;28;1365;-66
2022/07/28 03:55:16;;;;;;;;;;;21.60;67.10;;;;;;5012849;28;1421;-66
2022/07/28 03:57:41;;;;;;;;;;;21.60;67.10;;;;;;5013469;28;1080;-66
2022/07/28 04:00:07;;;;;;;;;;;21.60;67.10;;;;;;5013146;28;1382;-66
2022/07/28 04:02:33;;;;;;;;;;;21.70;67.20;;;;;;4995672;28;1006;-66
2022/07/28 04:04:59;;;;;;;;;;;21.70;67.20;;;;;;5013273;28;1326;-66
2022/07/28 04:07:24;;;;;;;;;;;21.60;67.20;;;;;;5013129;28;1899;-66
2022/07/28 04:09:50;;;;;;;;;;;21.60;67.10;;;;;;5029180;28;1167;-66
2022/07/28 04:12:15;;;;;;;;;;;21.60;67.20;;;;;;5032567;28;1318;-66
2022/07/28 04:14:40;;;;;;;;;;;21.60;67.20;;;;;;5023587;28;1177;-66
2022/07/28 04:17:06;;;;;;;;;;;21.60;67.90;;;;;;5013104;28;1264;-66
2022/07/28 04:19:31;;;;;;;;;;;21.70;67.20;;;;;;5017043;28;1373;-66
2022/07/28 04:21:57;;;;;;;;;;;21.60;67.20;;;;;;5017368;28;2235;-66
2022/07/28 04:24:22;;;;;;;;;;;21.60;67.20;;;;;;5029602;28;1295;-66
2022/07/28 04:26:48;;;;;;;;;;;21.60;67.20;;;;;;5030088;28;1910;-66
2022/07/28 04:29:13;;;;;;;;;;;21.70;67.30;;;;;;5017334;28;1368;-66
2022/07/28 04:31:38;;;;;;;;;;;21.70;67.30;;;;;;5012884;28;1303;-66
2022/07/28 04:34:04;;;;;;;;;;;21.70;67.40;;;;;;4995062;28;1360;-66
2022/07/28 04:36:29;;;;;;;;;;;21.60;67.30;;;;;;5021655;28;1088;-66
2022/07/28 04:38:58;;;;;;;;;;;21.60;67.30;;;;;;4999640;28;1375;-66
2022/07/28 04:41:24;;;;;;;;;;;21.60;67.30;;;;;;5012644;28;1217;-67
2022/07/28 04:43:49;;;;;;;;;;;21.60;67.30;;;;;;5016821;28;1631;-67
2022/07/28 04:46:14;;;;;;;;;;;21.60;67.30;;;;;;4994886;28;1474;-67
2022/07/28 04:48:40;;;;;;;;;;;21.60;67.40;;;;;;4990460;28;1886;-67
2022/07/28 04:51:05;;;;;;;;;;;21.60;67.40;;;;;;5012583;28;1354;-68
2022/07/28 04:53:31;;;;;;;;;;;21.60;67.40;;;;;;4994944;28;1284;-67
2022/07/28 04:55:56;;;;;;;;;;;21.60;67.40;;;;;;5012262;28;1283;-68
2022/07/28 04:58:22;;;;;;;;;;;21.60;67.40;;;;;;4995132;28;1284;-68
2022/07/28 05:00:48;;;;;;;;;;;21.60;67.40;;;;;;4995037;28;1363;-66
2022/07/28 05:03:13;;;;;;;;;;;21.60;67.40;;;;;;5012898;28;1348;-66
2022/07/28 05:05:39;;;;;;;;;;;21.60;67.50;;;;;;5012261;28;1245;-66
2022/07/28 05:08:04;;;;;;;;;;;21.70;67.50;;;;;;5014720;28;1906;-66
2022/07/28 05:10:30;;;;;;;;;;;21.60;67.50;;;;;;5031896;28;1361;-66
2022/07/28 05:12:56;;;;;;;;;;;21.60;67.50;;;;;;5020504;28;1930;-66
2022/07/28 05:15:21;;;;;;;;;;;21.60;67.50;;;;;;5002400;28;2259;-66
2022/07/28 05:17:47;;;;;;;;;;;21.60;67.50;;;;;;5024360;28;1252;-66
2022/07/28 05:20:12;;;;;;;;;;;21.60;67.50;;;;;;5016120;28;1383;-66
2022/07/28 05:22:42;;;;;;;;;;;21.60;67.50;;;;;;4994909;28;1320;-66
2022/07/28 05:25:17;;;;;;;;;;;21.70;67.60;;;;;;5012244;28;1320;-66
2022/07/28 05:27:43;;;;;;;;;;;21.60;67.50;;;;;;5023944;28;1914;-66
2022/07/28 05:30:09;;;;;;;;;;;21.60;67.60;;;;;;5000969;28;2799;-66
2022/07/28 05:32:34;;;;;;;;;;;21.60;67.60;;;;;;5024093;28;1201;-66
2022/07/28 05:34:59;;;;;;;;;;;21.60;67.60;;;;;;4997947;28;1116;-66
2022/07/28 05:37:25;;;;;;;;;;;21.70;67.70;;;;;;5015532;28;1154;-66
2022/07/28 05:39:50;;;;;;;;;;;21.70;67.70;;;;;;5015684;28;1131;-66
2022/07/28 05:42:16;;;;;;;;;;;21.60;67.70;;;;;;4998077;28;1243;-66
2022/07/28 05:44:41;;;;;;;;;;;21.70;67.70;;;;;;4997816;28;1330;-66
2022/07/28 05:47:07;;;;;;;;;;;21.60;67.60;;;;;;4998024;28;1957;-65
2022/07/28 05:49:32;;;;;;;;;;;21.60;67.70;;;;;;4998072;28;1089;-66
2022/07/28 05:51:58;;;;;;;;;;;21.60;67.60;;;;;;5015296;28;1285;-66
2022/07/28 05:54:23;;;;;;;;;;;21.60;67.70;;;;;;4997655;28;1264;-66
2022/07/28 05:56:49;;;;;;;;;;;21.60;67.70;;;;;;4997913;28;1277;-66
2022/07/28 05:59:15;;;;;;;;;;;21.60;67.80;;;;;;5015398;28;1076;-65
2022/07/28 06:01:40;;;;;;;;;;;21.60;67.70;;;;;;5015474;28;1290;-66
2022/07/28 06:04:06;;;;;;;;;;;21.60;67.70;;;;;;5015020;28;1084;-66
2022/07/28 06:06:31;;;;;;;;;;;21.60;67.70;;;;;;5014946;28;1945;-66
2022/07/28 06:08:57;;;;;;;;;;;21.60;67.70;;;;;;5006353;28;1327;-66
2022/07/28 06:11:22;;;;;;;;;;;21.60;67.70;;;;;;5034670;28;1355;-66
2022/07/28 06:13:48;;;;;;;;;;;21.70;67.80;;;;;;5015277;28;1347;-66
2022/07/28 06:16:13;;;;;;;;;;;21.60;67.70;;;;;;5025878;28;1349;-66
2022/07/28 06:18:39;;;;;;;;;;;21.60;67.80;;;;;;5015161;28;1276;-66
2022/07/28 06:21:04;;;;;;;;;;;21.60;67.80;;;;;;5009339;28;2408;-67
2022/07/28 06:23:30;;;;;;;;;;;21.60;67.80;;;;;;5026555;28;1013;-67
2022/07/28 06:25:55;;;;;;;;;;;21.60;67.80;;;;;;5029380;28;1246;-65
2022/07/28 06:28:21;;;;;;;;;;;21.60;67.80;;;;;;5032902;28;1969;-65
2022/07/28 06:30:47;;;;;;;;;;;21.60;67.80;;;;;;5014512;28;1803;-67
2022/07/28 06:33:12;;;;;;;;;;;21.60;67.80;;;;;;5015895;28;1049;-66
2022/07/28 06:35:38;;;;;;;;;;;21.60;67.80;;;;;;5011609;28;1153;-66
2022/07/28 06:38:03;;;;;;;;;;;21.60;67.80;;;;;;5014538;28;1279;-66
2022/07/28 06:40:30;;;;;;;;;;;21.60;67.90;;;;;;4997108;28;1316;-66
2022/07/28 06:42:55;;;;;;;;;;;21.60;67.90;;;;;;5013513;28;1311;-66
2022/07/28 06:45:21;;;;;;;;;;;21.60;67.90;;;;;;5014324;28;1252;-66
2022/07/28 06:47:46;;;;;;;;;;;21.60;67.80;;;;;;5014499;28;1906;-66
2022/07/28 06:50:12;;;;;;;;;;;21.60;67.80;;;;;;5014007;28;1506;-66
2022/07/28 06:52:37;;;;;;;;;;;21.60;67.90;;;;;;4996480;28;1196;-66
2022/07/28 06:55:03;;;;;;;;;;;21.60;67.90;;;;;;4995898;28;1376;-66
2022/07/28 06:57:30;;;;;;;;;;;21.60;67.90;;;;;;5013927;28;1336;-66
2022/07/28 06:59:55;;;;;;;;;;;21.60;67.90;;;;;;5014843;28;1712;-66
2022/07/28 07:02:21;;;;;;;;;;;21.60;67.90;;;;;;5028590;28;1326;-65
2022/07/28 07:04:46;;;;;;;;;;;21.60;67.90;;;;;;5026127;28;1258;-66
2022/07/28 07:07:12;;;;;;;;;;;21.60;67.90;;;;;;5024389;28;1949;-66
2022/07/28 07:09:37;;;;;;;;;;;21.60;67.90;;;;;;5017319;28;1242;-67
2022/07/28 07:12:03;;;;;;;;;;;21.60;68.00;;;;;;5015710;28;1315;-66
2022/07/28 07:14:28;;;;;;;;;;;21.60;68.00;;;;;;5008028;28;1430;-66
2022/07/28 07:16:53;;;;;;;;;;;21.60;68.00;;;;;;5013722;28;1271;-65
2022/07/28 07:19:19;;;;;;;;;;;21.60;67.90;;;;;;5017726;28;1276;-66
2022/07/28 07:21:45;;;;;;;;;;;21.60;67.90;;;;;;5013293;28;1339;-66
2022/07/28 07:24:11;;;;;;;;;;;21.60;68.00;;;;;;5013243;28;1287;-67
2022/07/28 07:26:36;;;;;;;;;;;21.60;68.00;;;;;;5019435;28;1998;-67
2022/07/28 07:29:02;;;;;;;;;;;21.60;68.00;;;;;;5019828;28;1253;-66
2022/07/28 07:31:28;;;;;;;;;;;21.60;68.00;;;;;;5019609;28;1297;-66
2022/07/28 07:33:53;;;;;;;;;;;21.60;68.00;;;;;;5015224;28;1359;-66
2022/07/28 07:36:19;;;;;;;;;;;21.60;68.80;;;;;;5032717;28;1318;-67
2022/07/28 07:38:44;;;;;;;;;;;21.60;68.00;;;;;;5014979;28;1197;-66
2022/07/28 07:41:11;;;;;;;;;;;21.60;67.00;;;;;;5014588;28;1229;-67
2022/07/28 07:43:36;;;;;;;;;;;21.60;66.90;;;;;;5014685;28;1307;-67
2022/07/28 07:46:02;;;;;;;;;;;21.60;67.40;;;;;;5014696;28;1539;-66
2022/07/28 07:48:27;;;;;;;;;;;21.60;66.70;;;;;;5014699;28;1948;-66
2022/07/28 07:50:52;;;;;;;;;;;21.60;66.70;;;;;;5014575;28;1375;-66
2022/07/28 07:53:18;;;;;;;;;;;21.60;66.80;;;;;;5032762;28;1107;-66
2022/07/28 07:55:43;;;;;;;;;;;21.60;66.50;;;;;;5015191;28;1292;-66
2022/07/28 07:58:09;;;;;;;;;;;21.60;66.60;;;;;;5033134;28;1246;-66
2022/07/28 08:00:34;;;;;;;;;;;21.60;66.40;;;;;;5032898;28;1336;-66
2022/07/28 08:03:00;;;;;;;;;;;21.60;65.30;;;;;;5033070;28;1385;-67
2022/07/28 08:05:25;;;;;;;;;;;21.60;64.90;;;;;;5014882;28;1288;-67
2022/07/28 08:07:51;;;;;;;;;;;21.60;64.30;;;;;;5032944;28;2239;-66
2022/07/28 08:10:16;;;;;;;;;;;21.60;64.30;;;;;;5032890;28;1327;-66
2022/07/28 08:12:42;;;;;;;;;;;21.60;63.90;;;;;;5020628;28;1139;-66
2022/07/28 08:15:07;;;;;;;;;;;21.60;63.80;;;;;;5018797;28;1430;-66
2022/07/28 08:17:33;;;;;;;;;;;21.60;64.40;;;;;;5032815;28;1210;-66
2022/07/28 08:19:58;;;;;;;;;;;21.60;64.40;;;;;;5014908;28;1416;-66
2022/07/28 08:22:24;;;;;;;;;;;21.60;64.60;;;;;;5020016;28;1187;-66
2022/07/28 08:24:49;;;;;;;;;;;21.60;64.30;;;;;;5011507;28;1196;-66
2022/07/28 08:27:15;;;;;;;;;;;21.60;64.50;;;;;;5006498;28;1894;-66
2022/07/28 08:29:41;;;;;;;;;;;21.60;64.60;;;;;;5019487;28;1370;-66
2022/07/28 08:32:06;;;;;;;;;;;21.60;64.70;;;;;;5020203;28;1368;-66
2022/07/28 08:34:32;;;;;;;;;;;21.60;64.70;;;;;;5025994;28;1153;-66
2022/07/28 08:36:57;;;;;;;;;;;21.60;64.80;;;;;;4995525;28;1253;-66
2022/07/28 08:39:23;;;;;;;;;;;21.60;64.70;;;;;;4995298;28;1387;-66
2022/07/28 08:41:58;;;;;;;;;;;21.60;64.80;;;;;;5012718;28;1205;-66
2022/07/28 08:44:25;;;;;;;;;;;21.60;64.60;;;;;;5001644;28;1292;-66
2022/07/28 08:46:51;;;;;;;;;;;21.60;63.90;;;;;;5014858;28;1894;-66
2022/07/28 08:49:16;;;;;;;;;;;21.60;64.70;;;;;;5032819;28;1394;-66
2022/07/28 08:51:42;;;;;;;;;;;21.60;64.70;;;;;;4998388;28;1329;-66
2022/07/28 08:54:07;;;;;;;;;;;21.60;64.70;;;;;;5014433;28;1417;-67
2022/07/28 08:56:33;;;;;;;;;;;21.60;64.20;;;;;;5032440;28;1067;-67
2022/07/28 08:58:58;;;;;;;;;;;21.60;63.90;;;;;;5014810;28;1439;-67
2022/07/28 09:01:24;;;;;;;;;;;21.60;64.10;;;;;;5014685;28;1386;-67
2022/07/28 09:03:49;;;;;;;;;;;21.60;64.20;;;;;;5014347;28;1350;-67
2022/07/28 09:06:15;;;;;;;;;;;21.60;64.40;;;;;;5034543;28;1222;-68
2022/07/28 09:08:41;;;;;;;;;;;21.60;64.10;;;;;;5018370;28;1890;-68
2022/07/28 09:11:07;;;;;;;;;;;21.60;64.20;;;;;;5018352;28;1300;-67
2022/07/28 09:13:33;;;;;;;;;;;21.60;64.00;;;;;;5036249;28;1360;-68
2022/07/28 09:15:58;;;;;;;;;;;21.60;65.00;;;;;;4998727;28;1704;-69
2022/07/28 09:18:24;;;;;;;;;;;21.60;63.40;;;;;;4998715;28;1408;-68
2022/07/28 09:20:49;;;;;;;;;;;21.60;63.00;;;;;;5019667;28;1291;-70
2022/07/28 09:23:15;;;;;;;;;;;21.60;62.40;;;;;;5016306;28;1324;-70
2022/07/28 09:25:40;;;;;;;;;;;21.60;61.50;;;;;;4998334;28;1123;-69
2022/07/28 09:28:07;;;;;;;;;;;21.60;60.80;;;;;;5027289;28;1974;-69
2022/07/28 09:30:34;;;;;;;;;;;21.60;61.00;;;;;;5015940;28;1405;-71
2022/07/28 09:33:19;;;;;;;;;;;21.60;60.90;;;;;;4998623;28;1104;-73
2022/07/28 09:55:15;;;;;;;;;;;21.60;59.30;;;;;;6304421;22;884219;-68
2022/07/28 09:57:40;;;;;;;;;;;21.60;59.80;;;;;;6152758;23;1231044;-68
2022/07/28 10:00:08;;;;;;;;;;;21.60;59.90;;;;;;6216028;23;1140;-67
2022/07/28 10:02:34;;;;;;;;;;;21.60;59.30;;;;;;6193415;23;1896;-70
2022/07/28 10:04:59;;;;;;;;;;;21.60;59.20;;;;;;6190306;23;1306;-69
2022/07/28 10:07:27;;;;;;;;;;;21.60;58.60;;;;;;6193426;23;911;-69
2022/07/28 10:10:10;;;;;;;;;;;21.60;59.70;;;;;;6189671;23;787;-70
2022/07/28 10:12:35;;;;;;;;;;;21.60;59.60;;;;;;6191669;23;835;-67
2022/07/28 10:17:55;;;;;;;;;;;21.60;59.20;;;;;;6261490;22;486;-64
2022/07/28 10:20:20;;;;;;;;;;;21.60;59.00;;;;;;6283807;22;962;-63
2022/07/28 10:22:46;;;;;;;;;;;21.60;58.20;;;;;;6284367;22;1944;-71
2022/07/28 10:25:11;;;;;;;;;;;21.60;58.40;;;;;;6256262;22;1281;-68
2022/07/28 10:27:38;;;;;;;;;;;21.60;58.20;;;;;;6256301;22;812;-65
2022/07/28 10:30:04;;;;;;;;;;;21.60;58.60;;;;;;6282012;22;811;-68
2022/07/28 10:32:37;;;;;;;;;;;21.60;58.50;;;;;;6284299;22;894;-69
2022/07/28 10:35:03;;;;;;;;;;;21.60;58.60;;;;;;6255657;22;1198;-64
2022/07/28 10:37:29;;;;;;;;;;;21.60;57.70;;;;;;6257181;22;1315;-66
2022/07/28 10:40:00;;;;;;;;;;;21.60;56.60;;;;;;6284059;22;779;-64
2022/07/28 10:42:26;;;;;;;;;;;21.60;56.20;;;;;;6284077;22;1884;-64
2022/07/28 10:44:52;;;;;;;;;;;21.60;56.00;;;;;;6283337;22;1300;-63
2022/07/28 10:47:18;;;;;;;;;;;21.60;56.20;;;;;;6256919;22;882;-64
2022/07/28 10:49:43;;;;;;;;;;;21.60;56.10;;;;;;6256752;22;765;-64
2022/07/28 10:52:09;;;;;;;;;;;21.60;56.30;;;;;;6284079;22;1037;-64
2022/07/28 10:54:41;;;;;;;;;;;21.60;56.80;;;;;;6253080;22;1301;-63
2022/07/28 10:57:07;;;;;;;;;;;21.60;56.70;;;;;;6249407;22;808;-63
2022/07/28 10:59:41;;;;;;;;;;;21.60;56.70;;;;;;6250089;22;1259;-66
2022/07/28 11:02:07;;;;;;;;;;;21.60;57.60;;;;;;6276475;22;1913;-66
2022/07/28 11:04:47;;;;;;;;;;;21.60;57.70;;;;;;6249410;22;1194;-65
2022/07/28 11:07:13;;;;;;;;;;;21.60;56.90;;;;;;6276619;22;815;-68
2022/07/28 11:09:39;;;;;;;;;;;21.70;56.10;;;;;;6250409;22;800;-63
2022/07/28 11:12:05;;;;;;;;;;;21.70;56.00;;;;;;6250424;22;858;-64
2022/07/28 11:14:32;;;;;;;;;;;21.70;55.70;;;;;;6276556;22;1276;-65
2022/07/28 11:17:03;;;;;;;;;;;21.70;55.70;;;;;;6276458;22;803;-66
2022/07/28 11:19:44;;;;;;;;;;;21.70;55.00;;;;;;6277122;22;785;-64
2022/07/28 11:22:20;;;;;;;;;;;21.70;53.90;;;;;;6276115;22;1940;-65
2022/07/28 11:25:01;;;;;;;;;;;21.70;55.50;;;;;;6276775;22;1234;-64
2022/07/28 11:27:38;;;;;;;;;;;21.70;56.50;;;;;;6276633;22;788;-64
2022/07/28 11:30:04;;;;;;;;;;;21.70;56.90;;;;;;6277190;22;835;-69
2022/07/28 11:32:49;;;;;;;;;;;21.70;55.90;;;;;;6276517;22;1053;-65
2022/07/28 11:35:15;;;;;;;;;;;21.70;55.70;;;;;;6275822;22;1293;-65
2022/07/28 11:37:59;;;;;;;;;;;21.70;55.80;;;;;;6276602;22;931;-64
2022/07/28 11:40:28;;;;;;;;;;;21.70;57.40;;;;;;6277022;22;843;-65
2022/07/28 11:42:56;;;;;;;;;;;21.70;57.30;;;;;;6249139;22;1928;-64
2022/07/28 11:45:23;;;;;;;;;;;21.70;57.30;;;;;;6248916;22;1557;-65
2022/07/28 11:47:49;;;;;;;;;;;21.80;56.20;;;;;;6250090;22;847;-64
2022/07/28 11:50:15;;;;;;;;;;;21.80;55.60;;;;;;6249996;22;821;-63
2022/07/28 11:52:54;;;;;;;;;;;21.80;56.50;;;;;;6224050;22;1176;-64
2022/07/28 11:55:19;;;;;;;;;;;21.80;56.50;;;;;;6248948;22;1147;-65
2022/07/28 11:57:46;;;;;;;;;;;21.80;55.70;;;;;;6248901;22;808;-64
2022/07/28 12:00:18;;;;;;;;;;;21.80;55.20;;;;;;6276368;22;835;-64
2022/07/28 12:02:43;;;;;;;;;;;21.80;54.50;;;;;;6276452;22;1880;-64
2022/07/28 12:05:09;;;;;;;;;;;21.80;55.60;;;;;;6275388;22;1162;-65
2022/07/28 12:07:36;;;;;;;;;;;21.80;55.60;;;;;;6248793;22;834;-64
2022/07/28 12:10:02;;;;;;;;;;;21.80;55.90;;;;;;6249614;22;764;-64
2022/07/28 12:12:28;;;;;;;;;;;21.80;55.80;;;;;;6248676;22;1351;-66
2022/07/28 12:14:54;;;;;;;;;;;21.80;55.20;;;;;;6248024;22;1195;-64
2022/07/28 12:17:20;;;;;;;;;;;21.80;55.10;;;;;;6249127;22;831;-64
2022/07/28 12:19:46;;;;;;;;;;;21.80;54.30;;;;;;6249658;22;931;-64
2022/07/28 12:22:11;;;;;;;;;;;21.80;54.80;;;;;;6276586;22;1908;-64
2022/07/28 12:24:37;;;;;;;;;;;21.80;55.10;;;;;;6275900;22;1160;-64
2022/07/28 12:27:03;;;;;;;;;;;21.80;52.40;;;;;;6275794;22;832;-64
2022/07/28 12:29:32;;;;;;;;;;;21.90;52.90;;;;;;6276104;22;848;-65
2022/07/28 12:32:03;;;;;;;;;;;21.80;52.90;;;;;;6275805;22;787;-66
2022/07/28 12:34:29;;;;;;;;;;;21.90;52.50;;;;;;6276335;22;1163;-65
2022/07/28 12:36:57;;;;;;;;;;;21.90;52.80;;;;;;6275808;22;827;-65
2022/07/28 12:39:24;;;;;;;;;;;21.90;53.00;;;;;;6276329;22;849;-66
2022/07/28 12:42:03;;;;;;;;;;;21.90;52.80;;;;;;6276187;22;840;-68
2022/07/28 12:44:32;;;;;;;;;;;21.90;53.10;;;;;;6275809;22;1252;-67
2022/07/28 12:46:57;;;;;;;;;;;21.90;54.00;;;;;;6248872;22;1057;-67
2022/07/28 12:49:23;;;;;;;;;;;21.90;53.80;;;;;;6275971;22;863;-68
2022/07/28 12:51:48;;;;;;;;;;;21.90;53.30;;;;;;6275821;22;781;-67
2022/07/28 12:54:14;;;;;;;;;;;21.90;54.10;;;;;;6276193;22;1175;-67
2022/07/28 12:56:43;;;;;;;;;;;21.90;55.30;;;;;;6247780;22;914;-66
2022/07/28 12:59:09;;;;;;;;;;;21.90;55.50;;;;;;6248495;22;788;-68
2022/07/28 13:01:44;;;;;;;;;;;22.00;54.90;;;;;;6248681;22;800;-68
2022/07/28 13:04:09;;;;;;;;;;;22.00;54.70;;;;;;6275823;22;1940;-69
2022/07/28 13:06:35;;;;;;;;;;;22.00;55.80;;;;;;6247680;22;804;-68
2022/07/28 13:09:00;;;;;;;;;;;22.00;55.60;;;;;;6275721;22;788;-70
2022/07/28 13:11:29;;;;;;;;;;;22.00;56.40;;;;;;6275810;22;908;-70
2022/07/28 13:13:55;;;;;;;;;;;22.00;56.20;;;;;;6275815;22;1282;-74
2022/07/28 13:16:26;;;;;;;;;;;22.00;55.70;;;;;;6248507;22;1379;-73
2022/07/28 13:18:56;;;;;;;;;;;22.00;55.10;;;;;;6248926;22;954;-73
2022/07/28 13:21:41;;;;;;;;;;;22.00;56.30;;;;;;6248783;22;1437;-75
2022/07/28 13:24:08;;;;;;;;;;;22.00;55.40;;;;;;6275632;22;1935;-74
2022/07/28 13:26:35;;;;;;;;;;;22.00;54.60;;;;;;6248199;22;816;-75
2022/07/28 13:29:00;;;;;;;;;;;22.00;54.00;;;;;;6275942;22;852;-75
2022/07/28 13:31:26;;;;;;;;;;;22.00;55.00;;;;;;6275875;22;823;-75
2022/07/28 13:33:51;;;;;;;;;;;22.00;55.60;;;;;;6275729;22;1258;-75
2022/07/28 13:36:17;;;;;;;;;;;22.10;55.40;;;;;;6274627;22;918;-75
2022/07/28 13:38:42;;;;;;;;;;;22.10;55.50;;;;;;6275746;22;919;-75
2022/07/28 13:41:07;;;;;;;;;;;22.10;55.70;;;;;;6275640;22;1029;-74
2022/07/28 13:43:33;;;;;;;;;;;22.10;55.30;;;;;;6275376;22;1940;-75
2022/07/28 13:45:58;;;;;;;;;;;22.00;55.60;;;;;;6248618;22;1587;-75
2022/07/28 13:48:24;;;;;;;;;;;22.00;55.70;;;;;;6275569;22;907;-74
2022/07/28 13:50:49;;;;;;;;;;;22.10;55.70;;;;;;6275584;22;875;-75
2022/07/28 13:53:33;;;;;;;;;;;22.10;55.50;;;;;;6248112;22;1172;-75
2022/07/28 13:55:58;;;;;;;;;;;22.10;54.50;;;;;;6248048;22;919;-75
2022/07/28 13:58:24;;;;;;;;;;;22.10;55.10;;;;;;6275143;22;1063;-74
2022/07/28 14:00:49;;;;;;;;;;;22.10;55.70;;;;;;6248591;22;792;-75
2022/07/28 14:03:15;;;;;;;;;;;22.20;55.60;;;;;;6247891;22;1925;-75
2022/07/28 14:05:40;;;;;;;;;;;22.20;55.40;;;;;;6247974;22;929;-75
2022/07/28 14:08:06;;;;;;;;;;;22.20;55.00;;;;;;6247890;22;1325;-75
2022/07/28 14:10:31;;;;;;;;;;;22.20;55.40;;;;;;6275829;22;783;-75
2022/07/28 14:12:57;;;;;;;;;;;22.20;54.30;;;;;;6275614;22;795;-74
2022/07/28 14:15:22;;;;;;;;;;;22.20;55.40;;;;;;6275344;22;1156;-75
2022/07/28 14:17:48;;;;;;;;;;;22.20;56.40;;;;;;6275547;22;839;-75
2022/07/28 14:20:13;;;;;;;;;;;22.20;56.60;;;;;;6275304;22;795;-76
2022/07/28 14:22:39;;;;;;;;;;;22.20;56.20;;;;;;6275425;22;1889;-75
2022/07/28 14:25:05;;;;;;;;;;;22.20;56.10;;;;;;6247646;22;1160;-75
2022/07/28 14:27:30;;;;;;;;;;;22.20;55.60;;;;;;6274864;22;1013;-75
2022/07/28 14:29:56;;;;;;;;;;;22.20;56.10;;;;;;6248974;22;808;-74
2022/07/28 14:32:21;;;;;;;;;;;22.20;56.20;;;;;;6250238;22;788;-74
2022/07/28 14:34:47;;;;;;;;;;;22.20;55.90;;;;;;6276750;22;1615;-74
2022/07/28 14:37:12;;;;;;;;;;;22.20;55.50;;;;;;6250165;22;887;-74
2022/07/28 14:39:38;;;;;;;;;;;22.20;55.80;;;;;;6250122;22;800;-74
2022/07/28 14:42:04;;;;;;;;;;;22.20;55.90;;;;;;6277072;22;1876;-74
2022/07/28 14:44:29;;;;;;;;;;;22.20;55.90;;;;;;6276864;22;1269;-73
2022/07/28 14:46:55;;;;;;;;;;;22.20;55.30;;;;;;6276453;22;761;-75
2022/07/28 14:49:20;;;;;;;;;;;22.20;53.20;;;;;;6277667;22;911;-74
2022/07/28 14:51:46;;;;;;;;;;;22.20;53.70;;;;;;6250015;22;1175;-73
2022/07/28 14:54:14;;;;;;;;;;;22.10;55.60;;;;;;6277421;22;1253;-75
2022/07/28 14:56:39;;;;;;;;;;;22.10;55.60;;;;;;6276302;22;867;-75